sensor_id;sensor_type;location;lat;lon;timestamp;temperature;humidity
30678;DHT22;17437;47.188;8.896;2022-08-07T00:02:19;19.60;99.90
30678;DHT22;17437;47.188;8.896;2022-08-07T00:04:52;19.60;99.90
30678;DHT22;17437;47.188;8.896;2022-08-07T00:07:24;19.60;99.90
30678;DHT22;17437;47.188;8.896;2022-08-07T00:09:56;19.60;99.90
30678;DHT22;17437;47.188;8.896;2022-08-07T00:12:30;19.60;99.90
30678;DHT22;17437;47.188;8.896;2022-08-07T00:15:01;19.60;99.90
30678;DHT22;17437;47.188;8.896;2022-08-07T00:17:33;19.60;99.90
30678;DHT22;17437;47.188;8.896;2022-08-07T00:20:06;19.60;99.90
30678;DHT22;17437;47.188;8.896;2022-08-07T00:22:40;19.60;99.90
30678;DHT22;17437;47.188;8.896;2022-08-07T00:25:13;19.60;99.90
30678;DHT22;17437;47.188;8.896;2022-08-07T00:27:46;19.60;99.90
30678;DHT22;17437;47.188;8.896;2022-08-07T00:30:19;19.60;99.90
30678;DHT22;17437;47.188;8.896;2022-08-07T00:32:52;19.60;99.90
30678;DHT22;17437;47.188;8.896;2022-08-07T00:35:24;19.60;99.90
30678;DHT22;17437;47.188;8.896;2022-08-07T00:37:58;19.60;99.90
30678;DHT22;17437;47.188;8.896;2022-08-07T00:40:30;19.60;99.90
30678;DHT22;17437;47.188;8.896;2022-08-07T00:43:03;19.60;99.90
30678;DHT22;17437;47.188;8.896;2022-08-07T00:45:37;19.60;99.90
30678;DHT22;17437;47.188;8.896;2022-08-07T00:48:10;19.70;99.90
30678;DHT22;17437;47.188;8.896;2022-08-07T00:50:42;19.80;99.90
30678;DHT22;17437;47.188;8.896;2022-08-07T00:53:16;19.80;99.90
30678;DHT22;17437;47.188;8.896;2022-08-07T00:55:49;19.90;99.90
30678;DHT22;17437;47.188;8.896;2022-08-07T00:58:23;19.90;99.90
30678;DHT22;17437;47.188;8.896;2022-08-07T01:00:54;19.90;99.90
30678;DHT22;17437;47.188;8.896;2022-08-07T01:03:25;20.00;99.90
30678;DHT22;17437;47.188;8.896;2022-08-07T01:05:59;19.90;99.90
30678;DHT22;17437;47.188;8.896;2022-08-07T01:08:32;19.90;99.90
30678;DHT22;17437;47.188;8.896;2022-08-07T01:11:05;19.90;99.90
30678;DHT22;17437;47.188;8.896;2022-08-07T01:13:38;19.90;99.90
30678;DHT22;17437;47.188;8.896;2022-08-07T01:16:13;19.90;99.90
30678;DHT22;17437;47.188;8.896;2022-08-07T01:18:46;19.90;99.90
30678;DHT22;17437;47.188;8.896;2022-08-07T01:21:20;19.90;99.90
30678;DHT22;17437;47.188;8.896;2022-08-07T01:23:57;20.00;99.90
30678;DHT22;17437;47.188;8.896;2022-08-07T01:26:31;20.00;99.90
30678;DHT22;17437;47.188;8.896;2022-08-07T01:29:04;20.00;99.90
30678;DHT22;17437;47.188;8.896;2022-08-07T01:31:36;19.90;99.90
30678;DHT22;17437;47.188;8.896;2022-08-07T01:34:13;20.00;99.90
30678;DHT22;17437;47.188;8.896;2022-08-07T01:36:45;20.00;99.90
30678;DHT22;17437;47.188;8.896;2022-08-07T01:39:18;20.00;99.90
30678;DHT22;17437;47.188;8.896;2022-08-07T01:41:50;20.00;99.90
30678;DHT22;17437;47.188;8.896;2022-08-07T01:44:23;20.00;99.90
30678;DHT22;17437;47.188;8.896;2022-08-07T01:46:54;19.90;99.90
30678;DHT22;17437;47.188;8.896;2022-08-07T01:49:27;19.80;99.90
30678;DHT22;17437;47.188;8.896;2022-08-07T01:52:03;19.90;99.90
30678;DHT22;17437;47.188;8.896;2022-08-07T01:54:38;19.80;99.90
30678;DHT22;17437;47.188;8.896;2022-08-07T01:57:13;19.80;99.90
30678;DHT22;17437;47.188;8.896;2022-08-07T01:59:50;19.80;99.90
30678;DHT22;17437;47.188;8.896;2022-08-07T02:02:26;19.70;99.90
30678;DHT22;17437;47.188;8.896;2022-08-07T02:05:02;19.70;99.90
30678;DHT22;17437;47.188;8.896;2022-08-07T02:07:38;19.70;99.90
30678;DHT22;17437;47.188;8.896;2022-08-07T02:10:12;19.70;99.90
30678;DHT22;17437;47.188;8.896;2022-08-07T02:12:46;19.70;99.90
30678;DHT22;17437;47.188;8.896;2022-08-07T02:15:22;19.70;99.90
30678;DHT22;17437;47.188;8.896;2022-08-07T02:17:57;19.60;99.90
30678;DHT22;17437;47.188;8.896;2022-08-07T02:20:31;19.60;99.90
30678;DHT22;17437;47.188;8.896;2022-08-07T02:23:05;19.50;99.90
30678;DHT22;17437;47.188;8.896;2022-08-07T02:25:40;19.50;99.90
30678;DHT22;17437;47.188;8.896;2022-08-07T02:28:14;19.40;99.90
30678;DHT22;17437;47.188;8.896;2022-08-07T02:30:50;19.40;99.90
30678;DHT22;17437;47.188;8.896;2022-08-07T02:33:24;19.40;99.90
30678;DHT22;17437;47.188;8.896;2022-08-07T02:35:58;19.30;99.90
30678;DHT22;17437;47.188;8.896;2022-08-07T02:38:35;19.30;99.90
30678;DHT22;17437;47.188;8.896;2022-08-07T02:41:08;19.30;99.90
30678;DHT22;17437;47.188;8.896;2022-08-07T02:43:41;19.30;99.90
30678;DHT22;17437;47.188;8.896;2022-08-07T02:46:17;19.40;99.90
30678;DHT22;17437;47.188;8.896;2022-08-07T02:51:36;19.30;99.90
30678;DHT22;17437;47.188;8.896;2022-08-07T02:54:11;19.20;99.90
30678;DHT22;17437;47.188;8.896;2022-08-07T02:56:43;19.20;99.90
30678;DHT22;17437;47.188;8.896;2022-08-07T02:59:18;19.20;99.90
30678;DHT22;17437;47.188;8.896;2022-08-07T03:01:52;19.30;99.90
30678;DHT22;17437;47.188;8.896;2022-08-07T03:04:27;19.30;99.90
30678;DHT22;17437;47.188;8.896;2022-08-07T03:06:59;19.40;99.90
30678;DHT22;17437;47.188;8.896;2022-08-07T03:09:34;19.40;99.90
30678;DHT22;17437;47.188;8.896;2022-08-07T03:12:09;19.30;99.90
30678;DHT22;17437;47.188;8.896;2022-08-07T03:14:44;19.20;99.90
30678;DHT22;17437;47.188;8.896;2022-08-07T03:17:17;19.20;99.90
30678;DHT22;17437;47.188;8.896;2022-08-07T03:19:51;19.10;99.90
30678;DHT22;17437;47.188;8.896;2022-08-07T03:22:25;19.10;99.90
30678;DHT22;17437;47.188;8.896;2022-08-07T03:24:58;19.10;99.90
30678;DHT22;17437;47.188;8.896;2022-08-07T03:27:30;19.00;99.90
30678;DHT22;17437;47.188;8.896;2022-08-07T03:30:05;19.10;99.90
30678;DHT22;17437;47.188;8.896;2022-08-07T03:32:39;19.10;99.90
30678;DHT22;17437;47.188;8.896;2022-08-07T03:35:15;19.10;99.90
30678;DHT22;17437;47.188;8.896;2022-08-07T03:37:52;19.00;99.90
30678;DHT22;17437;47.188;8.896;2022-08-07T03:40:25;19.00;99.90
30678;DHT22;17437;47.188;8.896;2022-08-07T03:42:59;19.00;99.90
30678;DHT22;17437;47.188;8.896;2022-08-07T03:45:32;19.00;99.90
30678;DHT22;17437;47.188;8.896;2022-08-07T03:48:05;19.00;99.90
30678;DHT22;17437;47.188;8.896;2022-08-07T03:50:39;19.00;99.90
30678;DHT22;17437;47.188;8.896;2022-08-07T03:53:15;19.00;99.90
30678;DHT22;17437;47.188;8.896;2022-08-07T03:58:32;19.10;99.90
30678;DHT22;17437;47.188;8.896;2022-08-07T04:01:06;19.10;99.90
30678;DHT22;17437;47.188;8.896;2022-08-07T04:03:40;19.00;99.90
30678;DHT22;17437;47.188;8.896;2022-08-07T04:06:14;19.00;99.90
30678;DHT22;17437;47.188;8.896;2022-08-07T04:08:47;19.00;99.90
30678;DHT22;17437;47.188;8.896;2022-08-07T04:11:19;19.10;99.90
30678;DHT22;17437;47.188;8.896;2022-08-07T04:13:53;19.00;99.90
30678;DHT22;17437;47.188;8.896;2022-08-07T04:16:28;19.00;99.90
30678;DHT22;17437;47.188;8.896;2022-08-07T04:19:01;19.00;99.90
30678;DHT22;17437;47.188;8.896;2022-08-07T04:21:34;19.00;99.90
30678;DHT22;17437;47.188;8.896;2022-08-07T04:24:08;18.90;99.90
30678;DHT22;17437;47.188;8.896;2022-08-07T04:26:43;18.90;99.90
30678;DHT22;17437;47.188;8.896;2022-08-07T04:29:16;18.90;99.90
30678;DHT22;17437;47.188;8.896;2022-08-07T04:31:49;19.00;99.90
30678;DHT22;17437;47.188;8.896;2022-08-07T04:34:23;19.00;99.90
30678;DHT22;17437;47.188;8.896;2022-08-07T04:36:56;19.00;99.90
30678;DHT22;17437;47.188;8.896;2022-08-07T04:39:28;19.00;99.90
30678;DHT22;17437;47.188;8.896;2022-08-07T04:42:03;19.00;99.90
30678;DHT22;17437;47.188;8.896;2022-08-07T04:44:35;19.00;99.90
30678;DHT22;17437;47.188;8.896;2022-08-07T04:47:12;19.10;99.90
30678;DHT22;17437;47.188;8.896;2022-08-07T04:49:48;19.00;99.90
30678;DHT22;17437;47.188;8.896;2022-08-07T04:52:23;19.10;99.90
30678;DHT22;17437;47.188;8.896;2022-08-07T04:55:00;19.10;99.90
30678;DHT22;17437;47.188;8.896;2022-08-07T04:57:36;19.10;99.90
30678;DHT22;17437;47.188;8.896;2022-08-07T05:00:12;19.20;99.90
30678;DHT22;17437;47.188;8.896;2022-08-07T05:02:51;19.10;99.90
30678;DHT22;17437;47.188;8.896;2022-08-07T05:05:25;19.20;99.90
30678;DHT22;17437;47.188;8.896;2022-08-07T05:08:01;19.20;99.90
30678;DHT22;17437;47.188;8.896;2022-08-07T05:10:36;19.20;99.90
30678;DHT22;17437;47.188;8.896;2022-08-07T05:13:13;19.20;99.90
30678;DHT22;17437;47.188;8.896;2022-08-07T05:15:48;19.20;99.90
30678;DHT22;17437;47.188;8.896;2022-08-07T05:18:24;19.30;99.90
30678;DHT22;17437;47.188;8.896;2022-08-07T05:21:00;19.30;99.90
30678;DHT22;17437;47.188;8.896;2022-08-07T05:23:37;19.30;99.90
30678;DHT22;17437;47.188;8.896;2022-08-07T05:26:12;19.40;99.90
30678;DHT22;17437;47.188;8.896;2022-08-07T05:28:48;19.50;99.90
30678;DHT22;17437;47.188;8.896;2022-08-07T05:31:22;19.40;99.90
30678;DHT22;17437;47.188;8.896;2022-08-07T05:33:57;19.40;99.90
30678;DHT22;17437;47.188;8.896;2022-08-07T05:36:32;19.50;99.90
30678;DHT22;17437;47.188;8.896;2022-08-07T05:39:06;19.50;99.90
30678;DHT22;17437;47.188;8.896;2022-08-07T05:41:40;19.50;99.90
30678;DHT22;17437;47.188;8.896;2022-08-07T05:44:16;19.50;99.90
30678;DHT22;17437;47.188;8.896;2022-08-07T05:46:50;19.50;99.90
30678;DHT22;17437;47.188;8.896;2022-08-07T05:49:22;19.50;99.90
30678;DHT22;17437;47.188;8.896;2022-08-07T05:51:55;19.50;99.90
30678;DHT22;17437;47.188;8.896;2022-08-07T05:54:28;19.50;99.90
30678;DHT22;17437;47.188;8.896;2022-08-07T05:57:02;19.60;99.90
30678;DHT22;17437;47.188;8.896;2022-08-07T05:59:36;19.60;99.90
30678;DHT22;17437;47.188;8.896;2022-08-07T06:02:13;19.70;99.90
30678;DHT22;17437;47.188;8.896;2022-08-07T06:04:50;19.80;99.90
30678;DHT22;17437;47.188;8.896;2022-08-07T06:07:24;19.80;99.90
30678;DHT22;17437;47.188;8.896;2022-08-07T06:09:58;19.90;99.90
30678;DHT22;17437;47.188;8.896;2022-08-07T06:12:31;19.90;99.90
30678;DHT22;17437;47.188;8.896;2022-08-07T06:15:06;20.00;99.90
30678;DHT22;17437;47.188;8.896;2022-08-07T06:17:40;20.00;99.90
30678;DHT22;17437;47.188;8.896;2022-08-07T06:20:14;20.00;99.90
30678;DHT22;17437;47.188;8.896;2022-08-07T06:22:48;20.00;99.90
30678;DHT22;17437;47.188;8.896;2022-08-07T06:25:21;20.10;99.90
30678;DHT22;17437;47.188;8.896;2022-08-07T06:28:01;20.10;99.90
30678;DHT22;17437;47.188;8.896;2022-08-07T06:30:33;20.10;99.90
30678;DHT22;17437;47.188;8.896;2022-08-07T06:33:07;20.10;99.90
30678;DHT22;17437;47.188;8.896;2022-08-07T06:35:40;20.10;99.90
30678;DHT22;17437;47.188;8.896;2022-08-07T06:38:13;20.20;99.90
30678;DHT22;17437;47.188;8.896;2022-08-07T06:40:48;20.20;99.90
30678;DHT22;17437;47.188;8.896;2022-08-07T06:43:24;20.20;99.90
30678;DHT22;17437;47.188;8.896;2022-08-07T06:45:58;20.30;99.90
30678;DHT22;17437;47.188;8.896;2022-08-07T06:48:30;20.20;99.90
30678;DHT22;17437;47.188;8.896;2022-08-07T06:51:04;20.30;99.90
30678;DHT22;17437;47.188;8.896;2022-08-07T06:53:39;20.30;99.90
30678;DHT22;17437;47.188;8.896;2022-08-07T06:56:14;20.30;99.90
30678;DHT22;17437;47.188;8.896;2022-08-07T06:58:49;20.30;99.90
30678;DHT22;17437;47.188;8.896;2022-08-07T07:01:23;20.40;99.90
30678;DHT22;17437;47.188;8.896;2022-08-07T07:03:56;20.40;99.90
30678;DHT22;17437;47.188;8.896;2022-08-07T07:06:31;20.40;99.90
30678;DHT22;17437;47.188;8.896;2022-08-07T07:09:21;20.40;99.90
30678;DHT22;17437;47.188;8.896;2022-08-07T07:12:08;20.40;99.90
30678;DHT22;17437;47.188;8.896;2022-08-07T07:14:42;20.40;99.90
30678;DHT22;17437;47.188;8.896;2022-08-07T07:17:19;20.40;99.90
30678;DHT22;17437;47.188;8.896;2022-08-07T07:19:56;20.30;99.90
30678;DHT22;17437;47.188;8.896;2022-08-07T07:22:33;20.30;99.90
30678;DHT22;17437;47.188;8.896;2022-08-07T07:25:10;20.20;99.90
30678;DHT22;17437;47.188;8.896;2022-08-07T07:27:47;20.30;99.90
30678;DHT22;17437;47.188;8.896;2022-08-07T07:30:26;20.20;99.90
30678;DHT22;17437;47.188;8.896;2022-08-07T07:33:01;20.30;99.90
30678;DHT22;17437;47.188;8.896;2022-08-07T07:35:35;20.30;99.90
30678;DHT22;17437;47.188;8.896;2022-08-07T07:38:09;20.30;99.90
30678;DHT22;17437;47.188;8.896;2022-08-07T07:40:44;20.20;99.90
30678;DHT22;17437;47.188;8.896;2022-08-07T07:43:17;20.30;99.90
30678;DHT22;17437;47.188;8.896;2022-08-07T07:45:52;20.30;99.90
30678;DHT22;17437;47.188;8.896;2022-08-07T07:48:26;20.40;99.90
30678;DHT22;17437;47.188;8.896;2022-08-07T07:51:00;20.40;99.90
30678;DHT22;17437;47.188;8.896;2022-08-07T07:53:37;20.50;99.90
30678;DHT22;17437;47.188;8.896;2022-08-07T07:56:13;20.50;99.90
30678;DHT22;17437;47.188;8.896;2022-08-07T07:58:46;20.60;99.90
30678;DHT22;17437;47.188;8.896;2022-08-07T08:01:20;20.70;99.90
30678;DHT22;17437;47.188;8.896;2022-08-07T08:03:56;20.70;99.90
30678;DHT22;17437;47.188;8.896;2022-08-07T08:06:30;20.80;99.90
30678;DHT22;17437;47.188;8.896;2022-08-07T08:09:04;20.90;99.90
30678;DHT22;17437;47.188;8.896;2022-08-07T08:11:38;21.00;99.90
30678;DHT22;17437;47.188;8.896;2022-08-07T08:14:12;21.10;99.90
30678;DHT22;17437;47.188;8.896;2022-08-07T08:16:44;21.00;99.90
30678;DHT22;17437;47.188;8.896;2022-08-07T08:19:21;20.90;99.90
30678;DHT22;17437;47.188;8.896;2022-08-07T08:21:55;20.90;99.90
30678;DHT22;17437;47.188;8.896;2022-08-07T08:24:46;20.90;99.90
30678;DHT22;17437;47.188;8.896;2022-08-07T08:27:40;20.90;99.90
30678;DHT22;17437;47.188;8.896;2022-08-07T08:30:14;20.90;99.90
30678;DHT22;17437;47.188;8.896;2022-08-07T08:32:51;21.00;99.90
30678;DHT22;17437;47.188;8.896;2022-08-07T08:35:24;21.10;99.90
30678;DHT22;17437;47.188;8.896;2022-08-07T08:38:01;21.10;99.90
30678;DHT22;17437;47.188;8.896;2022-08-07T08:40:36;21.10;99.90
30678;DHT22;17437;47.188;8.896;2022-08-07T08:43:13;21.20;99.90
30678;DHT22;17437;47.188;8.896;2022-08-07T08:45:47;21.10;99.90
30678;DHT22;17437;47.188;8.896;2022-08-07T08:48:34;21.10;99.90
30678;DHT22;17437;47.188;8.896;2022-08-07T08:51:09;21.20;99.90
30678;DHT22;17437;47.188;8.896;2022-08-07T08:53:46;21.20;99.90
30678;DHT22;17437;47.188;8.896;2022-08-07T08:56:20;21.30;99.90
30678;DHT22;17437;47.188;8.896;2022-08-07T08:58:59;21.40;99.90
30678;DHT22;17437;47.188;8.896;2022-08-07T09:01:35;21.40;99.90
30678;DHT22;17437;47.188;8.896;2022-08-07T09:04:22;21.30;99.90
30678;DHT22;17437;47.188;8.896;2022-08-07T09:06:54;21.40;99.90
30678;DHT22;17437;47.188;8.896;2022-08-07T09:12:49;21.40;99.90
30678;DHT22;17437;47.188;8.896;2022-08-07T09:15:33;21.40;99.90
30678;DHT22;17437;47.188;8.896;2022-08-07T09:18:21;21.50;99.90
30678;DHT22;17437;47.188;8.896;2022-08-07T09:21:04;21.60;99.90
30678;DHT22;17437;47.188;8.896;2022-08-07T09:23:45;21.70;99.90
30678;DHT22;17437;47.188;8.896;2022-08-07T09:26:26;21.80;99.90
30678;DHT22;17437;47.188;8.896;2022-08-07T09:29:04;21.90;99.90
30678;DHT22;17437;47.188;8.896;2022-08-07T09:31:40;22.00;99.90
30678;DHT22;17437;47.188;8.896;2022-08-07T09:34:17;22.00;99.90
30678;DHT22;17437;47.188;8.896;2022-08-07T09:36:54;22.00;99.90
30678;DHT22;17437;47.188;8.896;2022-08-07T09:39:40;22.10;99.90
30678;DHT22;17437;47.188;8.896;2022-08-07T09:42:23;22.00;99.90
30678;DHT22;17437;47.188;8.896;2022-08-07T09:44:57;22.00;99.90
30678;DHT22;17437;47.188;8.896;2022-08-07T09:47:34;22.10;99.90
30678;DHT22;17437;47.188;8.896;2022-08-07T09:50:12;22.20;99.90
30678;DHT22;17437;47.188;8.896;2022-08-07T09:52:50;22.30;99.90
30678;DHT22;17437;47.188;8.896;2022-08-07T09:55:25;22.30;99.90
30678;DHT22;17437;47.188;8.896;2022-08-07T09:58:19;22.30;99.90
30678;DHT22;17437;47.188;8.896;2022-08-07T10:01:07;22.30;99.90
30678;DHT22;17437;47.188;8.896;2022-08-07T10:04:01;22.40;99.90
30678;DHT22;17437;47.188;8.896;2022-08-07T10:07:01;22.40;99.90
30678;DHT22;17437;47.188;8.896;2022-08-07T10:09:47;22.40;99.90
30678;DHT22;17437;47.188;8.896;2022-08-07T10:12:31;22.50;99.90
30678;DHT22;17437;47.188;8.896;2022-08-07T10:18:51;22.70;99.90
30678;DHT22;17437;47.188;8.896;2022-08-07T10:21:28;22.70;99.90
30678;DHT22;17437;47.188;8.896;2022-08-07T10:24:12;22.90;99.90
30678;DHT22;17437;47.188;8.896;2022-08-07T10:26:50;22.80;99.90
30678;DHT22;17437;47.188;8.896;2022-08-07T10:29:36;22.80;99.90
30678;DHT22;17437;47.188;8.896;2022-08-07T10:32:19;22.90;99.90
30678;DHT22;17437;47.188;8.896;2022-08-07T10:35:01;23.00;99.90
30678;DHT22;17437;47.188;8.896;2022-08-07T10:37:35;23.10;99.90
30678;DHT22;17437;47.188;8.896;2022-08-07T10:40:12;23.20;99.90
30678;DHT22;17437;47.188;8.896;2022-08-07T10:42:52;23.40;99.90
30678;DHT22;17437;47.188;8.896;2022-08-07T10:45:26;23.30;99.90
30678;DHT22;17437;47.188;8.896;2022-08-07T10:48:07;23.20;99.90
30678;DHT22;17437;47.188;8.896;2022-08-07T10:50:45;23.10;99.90
30678;DHT22;17437;47.188;8.896;2022-08-07T10:53:24;23.20;99.90
30678;DHT22;17437;47.188;8.896;2022-08-07T10:56:03;23.20;99.90
30678;DHT22;17437;47.188;8.896;2022-08-07T10:58:50;23.20;99.90
30678;DHT22;17437;47.188;8.896;2022-08-07T11:01:27;23.30;99.90
30678;DHT22;17437;47.188;8.896;2022-08-07T11:04:04;23.40;99.90
30678;DHT22;17437;47.188;8.896;2022-08-07T11:06:44;23.30;99.90
30678;DHT22;17437;47.188;8.896;2022-08-07T11:09:21;23.50;99.90
30678;DHT22;17437;47.188;8.896;2022-08-07T11:11:57;23.40;99.90
30678;DHT22;17437;47.188;8.896;2022-08-07T11:14:32;23.60;99.90
30678;DHT22;17437;47.188;8.896;2022-08-07T11:17:28;23.50;99.90
30678;DHT22;17437;47.188;8.896;2022-08-07T11:20:04;23.50;99.90
30678;DHT22;17437;47.188;8.896;2022-08-07T11:22:41;23.20;99.90
30678;DHT22;17437;47.188;8.896;2022-08-07T11:25:17;23.00;99.90
30678;DHT22;17437;47.188;8.896;2022-08-07T11:27:56;22.80;99.90
30678;DHT22;17437;47.188;8.896;2022-08-07T11:30:33;22.60;99.90
30678;DHT22;17437;47.188;8.896;2022-08-07T11:33:10;22.40;99.90
30678;DHT22;17437;47.188;8.896;2022-08-07T11:35:50;22.10;99.90
30678;DHT22;17437;47.188;8.896;2022-08-07T11:38:23;22.00;99.90
30678;DHT22;17437;47.188;8.896;2022-08-07T11:40:58;21.70;99.90
30678;DHT22;17437;47.188;8.896;2022-08-07T11:43:36;21.60;99.90
30678;DHT22;17437;47.188;8.896;2022-08-07T11:46:15;21.50;99.90
30678;DHT22;17437;47.188;8.896;2022-08-07T11:49:04;21.60;99.90
30678;DHT22;17437;47.188;8.896;2022-08-07T11:51:47;21.50;99.90
30678;DHT22;17437;47.188;8.896;2022-08-07T11:57:20;21.30;99.90
30678;DHT22;17437;47.188;8.896;2022-08-07T12:00:03;21.20;99.90
30678;DHT22;17437;47.188;8.896;2022-08-07T12:06:02;21.40;99.90
30678;DHT22;17437;47.188;8.896;2022-08-07T12:08:25;21.60;99.90
30678;DHT22;17437;47.188;8.896;2022-08-07T12:11:02;21.80;99.90
30678;DHT22;17437;47.188;8.896;2022-08-07T12:13:38;22.20;99.90
30678;DHT22;17437;47.188;8.896;2022-08-07T12:16:15;22.30;99.90
30678;DHT22;17437;47.188;8.896;2022-08-07T12:18:50;22.40;99.90
30678;DHT22;17437;47.188;8.896;2022-08-07T12:21:27;22.90;99.90
30678;DHT22;17437;47.188;8.896;2022-08-07T12:24:06;23.20;99.90
30678;DHT22;17437;47.188;8.896;2022-08-07T12:26:41;23.80;99.90
30678;DHT22;17437;47.188;8.896;2022-08-07T12:29:19;24.40;99.90
30678;DHT22;17437;47.188;8.896;2022-08-07T12:31:56;24.90;99.90
30678;DHT22;17437;47.188;8.896;2022-08-07T12:34:32;25.40;99.90
30678;DHT22;17437;47.188;8.896;2022-08-07T12:37:06;25.50;99.90
30678;DHT22;17437;47.188;8.896;2022-08-07T12:39:40;25.60;99.90
30678;DHT22;17437;47.188;8.896;2022-08-07T12:42:19;25.40;99.90
30678;DHT22;17437;47.188;8.896;2022-08-07T12:44:53;24.80;99.90
30678;DHT22;17437;47.188;8.896;2022-08-07T12:47:29;24.50;99.90
30678;DHT22;17437;47.188;8.896;2022-08-07T12:50:08;24.60;99.90
30678;DHT22;17437;47.188;8.896;2022-08-07T12:52:45;24.50;99.90
30678;DHT22;17437;47.188;8.896;2022-08-07T12:55:21;24.70;99.90
30678;DHT22;17437;47.188;8.896;2022-08-07T12:57:57;24.80;99.90
30678;DHT22;17437;47.188;8.896;2022-08-07T13:00:37;24.70;99.90
30678;DHT22;17437;47.188;8.896;2022-08-07T13:03:15;24.60;99.90
30678;DHT22;17437;47.188;8.896;2022-08-07T13:05:57;24.50;99.90
30678;DHT22;17437;47.188;8.896;2022-08-07T13:08:47;24.50;99.90
30678;DHT22;17437;47.188;8.896;2022-08-07T13:11:36;24.60;99.90
30678;DHT22;17437;47.188;8.896;2022-08-07T13:14:14;24.80;99.90
30678;DHT22;17437;47.188;8.896;2022-08-07T13:16:47;24.70;99.90
30678;DHT22;17437;47.188;8.896;2022-08-07T13:19:25;24.70;99.90
30678;DHT22;17437;47.188;8.896;2022-08-07T13:22:01;24.90;99.90
30678;DHT22;17437;47.188;8.896;2022-08-07T13:24:38;24.90;99.90
30678;DHT22;17437;47.188;8.896;2022-08-07T13:27:15;24.70;99.90
30678;DHT22;17437;47.188;8.896;2022-08-07T13:29:55;24.40;99.90
30678;DHT22;17437;47.188;8.896;2022-08-07T13:32:29;24.40;99.90
30678;DHT22;17437;47.188;8.896;2022-08-07T13:35:05;24.60;99.90
30678;DHT22;17437;47.188;8.896;2022-08-07T13:37:44;24.70;99.90
30678;DHT22;17437;47.188;8.896;2022-08-07T13:40:19;24.70;99.90
30678;DHT22;17437;47.188;8.896;2022-08-07T13:42:58;24.70;99.90
30678;DHT22;17437;47.188;8.896;2022-08-07T13:45:31;24.60;99.90
30678;DHT22;17437;47.188;8.896;2022-08-07T13:48:08;24.60;99.90
30678;DHT22;17437;47.188;8.896;2022-08-07T13:50:55;24.50;99.90
30678;DHT22;17437;47.188;8.896;2022-08-07T13:53:32;24.30;99.90
30678;DHT22;17437;47.188;8.896;2022-08-07T13:56:07;24.10;99.90
30678;DHT22;17437;47.188;8.896;2022-08-07T13:58:42;23.90;99.90
30678;DHT22;17437;47.188;8.896;2022-08-07T14:01:37;23.70;99.90
30678;DHT22;17437;47.188;8.896;2022-08-07T14:04:14;23.70;99.90
30678;DHT22;17437;47.188;8.896;2022-08-07T14:06:48;23.70;99.90
30678;DHT22;17437;47.188;8.896;2022-08-07T14:09:25;23.60;99.90
30678;DHT22;17437;47.188;8.896;2022-08-07T14:12:00;23.60;99.90
30678;DHT22;17437;47.188;8.896;2022-08-07T14:14:39;23.30;99.90
30678;DHT22;17437;47.188;8.896;2022-08-07T14:17:13;23.10;99.90
30678;DHT22;17437;47.188;8.896;2022-08-07T14:19:50;22.90;99.90
30678;DHT22;17437;47.188;8.896;2022-08-07T14:22:26;22.80;99.90
30678;DHT22;17437;47.188;8.896;2022-08-07T14:25:06;22.90;99.90
30678;DHT22;17437;47.188;8.896;2022-08-07T14:27:44;23.10;99.90
30678;DHT22;17437;47.188;8.896;2022-08-07T14:30:17;23.20;99.90
30678;DHT22;17437;47.188;8.896;2022-08-07T14:32:54;23.40;99.90
30678;DHT22;17437;47.188;8.896;2022-08-07T14:35:29;23.50;99.90
30678;DHT22;17437;47.188;8.896;2022-08-07T14:38:04;23.70;99.90
30678;DHT22;17437;47.188;8.896;2022-08-07T14:40:37;23.90;99.90
30678;DHT22;17437;47.188;8.896;2022-08-07T14:43:12;24.00;99.90
30678;DHT22;17437;47.188;8.896;2022-08-07T14:45:49;24.00;99.90
30678;DHT22;17437;47.188;8.896;2022-08-07T14:48:27;24.00;99.90
30678;DHT22;17437;47.188;8.896;2022-08-07T14:51:04;23.90;99.90
30678;DHT22;17437;47.188;8.896;2022-08-07T14:53:40;23.80;99.90
30678;DHT22;17437;47.188;8.896;2022-08-07T14:56:18;23.80;99.90
30678;DHT22;17437;47.188;8.896;2022-08-07T14:59:01;23.80;99.90
30678;DHT22;17437;47.188;8.896;2022-08-07T15:01:37;23.80;99.90
30678;DHT22;17437;47.188;8.896;2022-08-07T15:04:12;23.90;99.90
30678;DHT22;17437;47.188;8.896;2022-08-07T15:06:46;23.90;99.90
30678;DHT22;17437;47.188;8.896;2022-08-07T15:09:24;23.80;99.90
30678;DHT22;17437;47.188;8.896;2022-08-07T15:12:00;23.80;99.90
30678;DHT22;17437;47.188;8.896;2022-08-07T15:14:35;23.80;99.90
30678;DHT22;17437;47.188;8.896;2022-08-07T15:17:13;23.80;99.90
30678;DHT22;17437;47.188;8.896;2022-08-07T15:19:50;23.70;99.90
30678;DHT22;17437;47.188;8.896;2022-08-07T15:22:25;23.70;99.90
30678;DHT22;17437;47.188;8.896;2022-08-07T15:25:02;23.60;99.90
30678;DHT22;17437;47.188;8.896;2022-08-07T15:27:38;23.50;99.90
30678;DHT22;17437;47.188;8.896;2022-08-07T15:30:13;23.60;99.90
30678;DHT22;17437;47.188;8.896;2022-08-07T15:32:47;23.70;99.90
30678;DHT22;17437;47.188;8.896;2022-08-07T15:35:24;23.80;99.90
30678;DHT22;17437;47.188;8.896;2022-08-07T15:37:59;23.90;99.90
30678;DHT22;17437;47.188;8.896;2022-08-07T15:40:32;23.90;99.90
30678;DHT22;17437;47.188;8.896;2022-08-07T15:43:14;23.90;99.90
30678;DHT22;17437;47.188;8.896;2022-08-07T15:45:49;23.90;99.90
30678;DHT22;17437;47.188;8.896;2022-08-07T15:48:26;23.90;99.90
30678;DHT22;17437;47.188;8.896;2022-08-07T15:51:04;23.80;99.90
30678;DHT22;17437;47.188;8.896;2022-08-07T15:53:41;23.70;99.90
30678;DHT22;17437;47.188;8.896;2022-08-07T15:56:13;23.60;99.90
30678;DHT22;17437;47.188;8.896;2022-08-07T15:58:51;23.50;99.90
30678;DHT22;17437;47.188;8.896;2022-08-07T16:01:27;23.30;99.90
30678;DHT22;17437;47.188;8.896;2022-08-07T16:04:02;23.10;99.90
30678;DHT22;17437;47.188;8.896;2022-08-07T16:06:38;23.20;99.90
30678;DHT22;17437;47.188;8.896;2022-08-07T16:09:13;23.30;99.90
30678;DHT22;17437;47.188;8.896;2022-08-07T16:11:56;23.30;99.90
30678;DHT22;17437;47.188;8.896;2022-08-07T16:14:47;23.30;99.90
30678;DHT22;17437;47.188;8.896;2022-08-07T16:17:26;23.20;99.90
30678;DHT22;17437;47.188;8.896;2022-08-07T16:23:47;23.40;99.90
30678;DHT22;17437;47.188;8.896;2022-08-07T16:26:27;23.50;99.90
30678;DHT22;17437;47.188;8.896;2022-08-07T16:29:11;23.50;99.90
30678;DHT22;17437;47.188;8.896;2022-08-07T16:31:51;23.60;99.90
30678;DHT22;17437;47.188;8.896;2022-08-07T16:34:37;23.60;99.90
30678;DHT22;17437;47.188;8.896;2022-08-07T16:43:49;23.50;99.90
30678;DHT22;17437;47.188;8.896;2022-08-07T16:46:31;23.60;99.90
30678;DHT22;17437;47.188;8.896;2022-08-07T16:49:29;23.60;99.90
30678;DHT22;17437;47.188;8.896;2022-08-07T16:52:08;23.60;99.90
30678;DHT22;17437;47.188;8.896;2022-08-07T16:54:51;23.50;99.90
30678;DHT22;17437;47.188;8.896;2022-08-07T16:57:30;23.20;99.90